Time;durP1;ratioP1;P1;durP2;ratioP2;P2;SDS_P1;SDS_P2;PMS_P1;PMS_P2;Temp;Humidity;BMP_temperature;BMP_pressure;BME280_temperature;BME280_humidity;BME280_pressure;Samples;Min_cycle;Max_cycle;Signal;HPM_P1;HPM_P2
2022/05/27 00:01:26;;;;;;;;;0.00;0.00;;;;;18.88;50.15;102143.84;4956649;28;45464;-71
2022/05/27 00:03:51;;;;;;;;;2.00;0.75;;;;;18.90;50.19;102146.50;4958046;28;46155;-71
2022/05/27 00:06:17;;;;;;;;;1.00;0.25;;;;;18.90;50.25;102146.50;4958015;28;45324;-71
2022/05/27 00:08:42;;;;;;;;;0.50;0.50;;;;;18.89;49.98;102136.63;4956872;28;45493;-71
2022/05/27 00:11:08;;;;;;;;;0.00;0.00;;;;;18.88;49.78;102135.75;4957802;28;45305;-71
2022/05/27 00:13:33;;;;;;;;;1.00;0.50;;;;;18.80;50.20;102123.47;4946452;28;46072;-71
2022/05/27 00:15:59;;;;;;;;;1.00;1.00;;;;;18.82;50.04;102127.84;4956428;28;45402;-71
2022/05/27 00:18:24;;;;;;;;;0.50;0.50;;;;;18.79;50.14;102128.00;4957951;28;45328;-71
2022/05/27 00:20:50;;;;;;;;;0.00;0.00;;;;;18.76;50.43;102133.56;4957695;28;45296;-71
2022/05/27 00:23:17;;;;;;;;;1.00;1.00;;;;;18.77;50.55;102134.44;4951476;28;45876;-71
2022/05/27 00:25:42;;;;;;;;;0.00;0.00;;;;;18.69;50.45;102122.16;4956786;28;45396;-71
2022/05/27 00:28:08;;;;;;;;;0.00;0.00;;;;;18.68;50.70;102117.66;4957847;28;45200;-71
2022/05/27 00:30:34;;;;;;;;;0.75;0.00;;;;;18.56;50.41;102102.00;4957670;28;45181;-71
2022/05/27 00:32:59;;;;;;;;;0.00;0.00;;;;;18.67;50.34;102120.44;4957436;28;45312;-71
2022/05/27 00:35:25;;;;;;;;;2.75;1.00;;;;;18.59;50.48;102106.38;4957462;28;45352;-71
2022/05/27 00:37:50;;;;;;;;;0.00;0.00;;;;;18.66;50.88;102113.25;4960517;28;45125;-71
2022/05/27 00:40:17;;;;;;;;;1.50;1.50;;;;;18.70;50.75;102117.59;4959233;28;45438;-71
2022/05/27 00:42:46;;;;;;;;;1.00;1.00;;;;;18.68;50.52;102106.84;4960554;28;46251;-71
2022/05/27 00:45:29;;;;;;;;;1.00;1.00;;;;;18.71;50.54;102103.16;4960307;28;45311;-71
2022/05/27 00:47:57;;;;;;;;;0.00;0.00;;;;;18.72;50.76;102090.50;4960605;28;45297;-71
2022/05/27 00:50:30;;;;;;;;;0.50;0.50;;;;;18.70;50.58;102085.16;4960559;28;45473;-71
2022/05/27 00:52:56;;;;;;;;;0.00;0.00;;;;;18.76;50.78;102092.09;4960003;28;46398;-71
2022/05/27 00:55:26;;;;;;;;;1.00;1.00;;;;;18.75;50.97;102093.06;4958952;28;45336;-71
2022/05/27 00:58:37;;;;;;;;;0.00;0.00;;;;;18.73;50.99;102101.25;4959229;28;45420;-71
2022/05/27 01:01:04;;;;;;;;;0.75;0.75;;;;;18.75;50.63;102102.03;4952047;28;45384;-71
2022/05/27 01:03:31;;;;;;;;;0.25;0.25;;;;;18.78;50.72;102104.63;4958756;28;46709;-71
2022/05/27 01:05:57;;;;;;;;;2.75;1.00;;;;;18.75;50.92;102093.06;4960227;28;45414;-71
2022/05/27 01:08:26;;;;;;;;;1.00;1.00;;;;;18.73;50.83;102094.94;4960271;28;45445;-71
2022/05/27 01:11:21;;;;;;;;;0.00;0.00;;;;;18.75;51.14;102106.59;4960234;28;45504;-71
2022/05/27 01:14:17;;;;;;;;;3.00;1.00;;;;;18.74;51.02;102097.56;4947018;28;45485;-71
2022/05/27 01:16:48;;;;;;;;;0.25;0.25;;;;;18.77;51.11;102104.69;4960145;28;45267;-71
2022/05/27 01:22:25;;;;;;;;;2.75;1.00;;;;;18.71;50.92;102097.72;4960067;28;45314;-71
2022/05/27 01:25:21;;;;;;;;;0.50;0.50;;;;;18.66;51.10;102094.31;4952158;28;46435;-71
2022/05/27 01:28:02;;;;;;;;;0.75;0.75;;;;;18.63;51.50;102094.50;4958856;28;45599;-71
2022/05/27 01:30:42;;;;;;;;;1.00;0.75;;;;;18.62;51.43;102093.59;4960152;28;45416;-71
2022/05/27 01:33:19;;;;;;;;;1.50;1.50;;;;;18.61;51.58;102090.97;4959960;28;45362;-71
2022/05/27 01:35:51;;;;;;;;;1.25;1.25;;;;;18.57;51.39;102081.25;4959913;28;46194;-71
2022/05/27 01:38:16;;;;;;;;;2.00;1.00;;;;;18.62;51.79;102090.03;4959591;28;45550;-71
2022/05/27 01:40:59;;;;;;;;;2.00;1.00;;;;;18.59;51.69;102084.75;4960053;28;45524;-71
2022/05/27 01:43:36;;;;;;;;;1.00;1.00;;;;;18.61;51.31;102085.53;4959793;28;45169;-71
2022/05/27 01:46:02;;;;;;;;;1.00;1.00;;;;;18.61;51.38;102082.84;4959766;28;45948;-71
2022/05/27 01:48:35;;;;;;;;;3.00;1.00;;;;;18.60;51.08;102087.38;4959373;28;45449;-71
2022/05/27 01:51:08;;;;;;;;;1.00;1.00;;;;;18.57;51.35;102084.81;4959871;28;45225;-71
2022/05/27 01:53:47;;;;;;;;;1.00;1.00;;;;;18.50;51.59;102076.09;4959731;28;45380;-71
2022/05/27 01:56:18;;;;;;;;;1.25;1.25;;;;;18.54;51.45;102084.06;4959370;28;45427;-71
2022/05/27 01:58:53;;;;;;;;;2.75;1.75;;;;;18.51;51.70;102083.28;4959667;28;45337;-71
2022/05/27 02:01:25;;;;;;;;;1.00;1.00;;;;;18.49;51.43;102087.88;4959491;28;45240;-71
2022/05/27 02:04:17;;;;;;;;;0.75;0.75;;;;;18.49;51.60;102084.28;4958442;28;45838;-71
2022/05/27 02:06:48;;;;;;;;;1.25;1.00;;;;;18.48;51.76;102091.50;4950270;28;47147;-71
2022/05/27 02:09:31;;;;;;;;;2.00;1.00;;;;;18.45;51.32;102080.84;4959221;28;45274;-71
2022/05/27 02:12:02;;;;;;;;;1.00;1.00;;;;;18.41;51.63;102081.94;4959701;28;45448;-71
2022/05/27 02:14:52;;;;;;;;;1.75;0.75;;;;;18.42;51.51;102088.19;4946763;28;45605;-71
2022/05/27 02:17:26;;;;;;;;;1.00;1.00;;;;;18.37;51.31;102087.53;4959186;28;46330;-71
2022/05/27 02:19:56;;;;;;;;;1.00;1.00;;;;;18.32;51.35;102085.03;4959545;28;45494;-71
2022/05/27 02:22:46;;;;;;;;;3.00;1.00;;;;;18.17;51.94;102075.75;4959252;28;45208;-71
2022/05/27 02:25:21;;;;;;;;;1.50;1.50;;;;;18.21;51.71;102087.31;4941649;28;45324;-72
2022/05/27 02:27:56;;;;;;;;;2.00;1.75;;;;;18.09;52.36;102069.78;4959374;28;45333;-71
2022/05/27 02:30:29;;;;;;;;;1.50;1.00;;;;;18.16;52.15;102084.81;4959141;28;45487;-71
2022/05/27 02:35:51;;;;;;;;;1.50;1.50;;;;;18.15;52.03;102081.22;4959344;28;45347;-71
2022/05/27 02:38:17;;;;;;;;;2.00;1.75;;;;;18.21;52.09;102090.00;4957378;28;47208;-71
2022/05/27 02:40:56;;;;;;;;;3.00;0.75;;;;;18.18;52.22;102082.06;4959408;28;45219;-71
2022/05/27 02:43:51;;;;;;;;;0.75;0.75;;;;;18.18;52.17;102085.63;4959118;28;45212;-71
2022/05/27 02:46:41;;;;;;;;;1.50;0.50;;;;;18.11;52.08;102071.50;4959061;28;45313;-71
2022/05/27 02:49:21;;;;;;;;;2.75;0.75;;;;;18.19;52.48;102089.19;4959156;28;45240;-71
2022/05/27 02:51:54;;;;;;;;;1.50;1.50;;;;;18.18;52.11;102092.88;4958823;28;45272;-71
2022/05/27 02:54:28;;;;;;;;;3.00;1.00;;;;;18.18;52.31;102092.88;4959047;28;45236;-71
2022/05/27 02:57:10;;;;;;;;;1.00;1.00;;;;;18.16;52.18;102087.53;4957566;28;45848;-71
2022/05/27 02:59:38;;;;;;;;;1.00;1.00;;;;;18.11;52.79;102084.13;4958043;28;46113;-71
2022/05/27 03:02:12;;;;;;;;;5.75;3.25;;;;;18.11;52.24;102093.13;4959103;28;45673;-71
2022/05/27 03:04:43;;;;;;;;;2.75;1.00;;;;;18.08;52.33;102085.13;4959028;28;45381;-71
2022/05/27 03:07:23;;;;;;;;;1.00;1.00;;;;;18.08;52.32;102086.97;4957775;28;45344;-71
2022/05/27 03:10:03;;;;;;;;;1.75;1.75;;;;;18.01;52.49;102082.75;4958805;28;45286;-71
2022/05/27 03:12:28;;;;;;;;;1.75;1.75;;;;;18.03;52.87;102089.00;4955906;28;45470;-71
2022/05/27 03:15:35;;;;;;;;;2.75;2.50;;;;;18.02;52.90;102088.09;4948741;28;45322;-71
2022/05/27 03:18:06;;;;;;;;;4.00;2.75;;;;;17.98;52.98;102082.91;4956407;28;45273;-71
2022/05/27 03:20:56;;;;;;;;;1.25;1.25;;;;;17.96;52.68;102089.25;4958550;28;46346;-71
2022/05/27 03:23:44;;;;;;;;;1.75;1.75;;;;;17.95;52.74;102097.41;4951695;28;45523;-71
2022/05/27 03:26:31;;;;;;;;;4.00;2.75;;;;;17.93;52.44;102085.78;4958436;28;45315;-71
2022/05/27 03:29:33;;;;;;;;;1.00;1.00;;;;;17.97;52.66;102095.50;4958536;28;45232;-71
2022/05/27 03:32:14;;;;;;;;;2.75;2.25;;;;;17.94;52.63;102090.22;4958311;28;46291;-71
2022/05/27 03:34:50;;;;;;;;;1.00;1.00;;;;;17.85;52.49;102090.59;4957265;28;45307;-71
2022/05/27 03:37:24;;;;;;;;;5.75;2.75;;;;;17.76;52.90;102081.94;4958453;28;45315;-71
2022/05/27 03:40:06;;;;;;;;;2.00;2.00;;;;;17.88;52.77;102085.97;4957071;28;45444;-71
2022/05/27 03:42:34;;;;;;;;;1.00;1.00;;;;;17.87;52.36;102089.59;4958241;28;45435;-71
2022/05/27 03:45:08;;;;;;;;;3.25;2.25;;;;;17.87;52.82;102089.59;4958291;28;45466;-71
2022/05/27 03:47:35;;;;;;;;;3.50;2.25;;;;;17.85;52.93;102091.47;4957085;28;45334;-71
2022/05/27 03:50:01;;;;;;;;;2.00;2.00;;;;;17.76;52.61;102086.47;4956863;28;45329;-71
2022/05/27 03:52:33;;;;;;;;;4.00;1.75;;;;;17.76;52.66;102087.34;4958128;28;45399;-71
2022/05/27 03:54:58;;;;;;;;;7.00;2.75;;;;;17.75;52.91;102093.66;4956708;28;46040;-71
2022/05/27 03:57:23;;;;;;;;;1.00;1.00;;;;;17.72;52.69;102085.69;4958080;28;45453;-71
2022/05/27 03:59:49;;;;;;;;;2.50;1.50;;;;;17.73;52.75;102094.69;4957895;28;45579;-71
2022/05/27 04:02:14;;;;;;;;;2.50;2.50;;;;;17.73;52.89;102098.25;4958121;28;45688;-71
2022/05/27 04:04:39;;;;;;;;;2.00;2.00;;;;;17.73;52.91;102100.09;4957869;28;45303;-71
2022/05/27 04:07:05;;;;;;;;;2.00;2.00;;;;;17.72;52.80;102099.19;4958273;28;45233;-71
2022/05/27 04:09:32;;;;;;;;;1.50;1.50;;;;;17.80;53.24;102098.03;4957647;28;45469;-71
2022/05/27 04:11:57;;;;;;;;;2.00;2.00;;;;;17.75;53.01;102082.88;4958376;28;48110;-71
2022/05/27 04:14:23;;;;;;;;;2.25;1.50;;;;;17.83;52.96;102095.19;4947941;28;45264;-71
2022/05/27 04:16:48;;;;;;;;;3.00;2.50;;;;;17.84;53.01;102092.44;4960916;28;45225;-71
2022/05/27 04:19:16;;;;;;;;;1.75;1.75;;;;;17.87;52.57;102103.13;4960641;28;45462;-71
2022/05/27 04:21:41;;;;;;;;;1.75;1.75;;;;;17.88;53.02;102099.47;4959586;28;48033;-71
2022/05/27 04:24:07;;;;;;;;;3.00;2.50;;;;;17.91;52.74;102102.06;4951830;28;46255;-71
2022/05/27 04:26:32;;;;;;;;;3.00;2.00;;;;;17.90;52.40;102107.53;4961147;28;45192;-71
2022/05/27 04:28:57;;;;;;;;;2.50;2.50;;;;;17.91;52.98;102112.00;4960696;28;45315;-71
2022/05/27 04:31:23;;;;;;;;;4.00;2.50;;;;;17.89;52.65;102111.16;4960463;28;45403;-71
2022/05/27 04:33:49;;;;;;;;;4.25;4.00;;;;;17.81;53.21;102102.47;4960575;28;45323;-71
2022/05/27 04:36:15;;;;;;;;;3.50;3.50;;;;;17.85;53.16;102102.28;4960735;28;45323;-71
2022/05/27 04:38:41;;;;;;;;;3.50;3.50;;;;;17.87;53.17;102107.66;4960278;28;45325;-71
2022/05/27 04:41:06;;;;;;;;;2.50;2.50;;;;;17.87;53.06;102111.22;4960381;28;45476;-71
2022/05/27 04:43:33;;;;;;;;;2.75;2.75;;;;;17.81;53.42;102102.47;4960430;28;45332;-71
2022/05/27 04:45:59;;;;;;;;;1.75;1.75;;;;;17.85;53.47;102106.81;4960526;28;45174;-71
2022/05/27 04:48:24;;;;;;;;;5.75;4.75;;;;;17.82;53.48;102098.81;4960268;28;45469;-71
2022/05/27 04:50:50;;;;;;;;;5.25;4.50;;;;;17.83;53.39;102101.47;4960438;28;45394;-71
2022/05/27 04:53:15;;;;;;;;;3.50;3.50;;;;;17.83;53.45;102106.88;4958744;28;45431;-71
2022/05/27 04:55:41;;;;;;;;;4.00;4.00;;;;;17.82;53.15;102109.63;4959065;28;45213;-71
2022/05/27 04:58:08;;;;;;;;;5.00;3.75;;;;;17.82;53.53;102105.09;4960244;28;45229;-71
2022/05/27 05:00:36;;;;;;;;;8.75;7.75;;;;;17.81;53.64;102115.97;4960407;28;45638;-71
2022/05/27 05:03:03;;;;;;;;;5.75;5.25;;;;;17.83;53.72;102120.38;4960155;28;45315;-71
2022/05/27 05:05:30;;;;;;;;;6.75;4.75;;;;;17.83;53.30;102106.00;4960447;28;45884;-71
2022/05/27 05:08:01;;;;;;;;;4.00;4.00;;;;;17.85;53.08;102110.38;4960025;28;45165;-71
2022/05/27 05:10:26;;;;;;;;;6.25;5.00;;;;;17.76;53.55;102100.84;4960173;28;45921;-71
2022/05/27 05:12:53;;;;;;;;;6.50;5.25;;;;;17.81;53.78;102114.16;4954036;28;45443;-71
2022/05/27 05:15:20;;;;;;;;;5.25;4.50;;;;;17.81;53.36;102113.25;4953598;28;45235;-71
2022/05/27 05:17:46;;;;;;;;;9.50;7.00;;;;;17.77;53.68;102117.91;4960256;28;45234;-71
2022/05/27 05:20:14;;;;;;;;;4.75;4.75;;;;;17.76;53.53;102117.03;4960068;28;47117;-71
2022/05/27 05:22:40;;;;;;;;;8.00;6.50;;;;;17.77;53.65;102118.81;4956783;28;45386;-71
2022/05/27 05:25:06;;;;;;;;;7.75;6.50;;;;;17.73;53.62;102110.88;4954350;28;45296;-71
2022/05/27 05:27:34;;;;;;;;;7.50;7.50;;;;;17.74;53.64;102121.63;4960053;28;45484;-71
2022/05/27 05:30:00;;;;;;;;;6.75;6.25;;;;;17.76;54.06;102113.47;4959978;28;46415;-71
2022/05/27 05:32:25;;;;;;;;;7.00;5.25;;;;;17.78;53.79;102123.25;4959912;28;45339;-71
2022/05/27 05:34:51;;;;;;;;;5.25;4.25;;;;;17.80;54.13;102127.72;4960008;28;45400;-71
2022/05/27 05:37:17;;;;;;;;;6.50;5.00;;;;;17.76;54.36;102119.75;4959629;28;45539;-71
2022/05/27 05:39:42;;;;;;;;;7.25;5.75;;;;;17.70;54.11;102105.59;4959667;28;46012;-71
2022/05/27 05:42:09;;;;;;;;;4.25;4.25;;;;;17.73;53.87;102110.88;4958576;28;45496;-71
2022/05/27 05:44:35;;;;;;;;;6.75;5.75;;;;;17.73;54.36;102122.56;4959846;28;45374;-71
2022/05/27 05:47:02;;;;;;;;;8.50;7.25;;;;;17.71;54.32;102119.06;4959736;28;45324;-71
2022/05/27 05:49:28;;;;;;;;;12.75;9.75;;;;;17.68;54.51;102115.59;4959740;28;46466;-71
2022/05/27 05:51:55;;;;;;;;;7.00;5.50;;;;;17.69;54.37;102117.34;4959656;28;45687;-71
2022/05/27 05:54:22;;;;;;;;;13.00;10.25;;;;;17.69;54.33;102117.34;4959651;28;45272;-71
2022/05/27 05:56:49;;;;;;;;;10.75;9.75;;;;;17.71;54.81;102121.75;4959322;28;45517;-71
2022/05/27 05:59:16;;;;;;;;;7.50;7.50;;;;;17.71;54.58;102120.88;4959436;28;46188;-71
2022/05/27 06:01:42;;;;;;;;;12.00;9.50;;;;;17.72;54.40;102111.81;4959521;28;45315;-71
2022/05/27 06:04:08;;;;;;;;;6.50;6.50;;;;;17.73;54.74;102121.69;4959674;28;45314;-71
2022/05/27 06:06:34;;;;;;;;;9.75;9.25;;;;;17.67;54.53;102120.09;4959769;28;45319;-71
2022/05/27 06:08:59;;;;;;;;;12.00;12.00;;;;;17.66;54.76;102114.75;4959151;28;45346;-71
2022/05/27 06:11:25;;;;;;;;;17.75;15.25;;;;;17.62;54.44;102105.91;4959495;28;45174;-71
2022/05/27 06:13:50;;;;;;;;;12.25;10.75;;;;;17.65;54.70;102113.88;4946651;28;45231;-71
2022/05/27 06:16:16;;;;;;;;;10.25;10.00;;;;;17.68;54.62;102110.19;4959422;28;45256;-71
2022/05/27 06:18:42;;;;;;;;;10.50;9.25;;;;;17.64;55.19;102122.06;4959224;28;45324;-71
2022/05/27 06:21:07;;;;;;;;;9.25;8.00;;;;;17.66;54.88;102122.84;4959583;28;45232;-71
2022/05/27 06:23:33;;;;;;;;;8.00;7.50;;;;;17.63;55.11;102110.38;4951486;28;45457;-71
2022/05/27 06:26:02;;;;;;;;;6.50;6.50;;;;;17.67;55.09;102127.34;4959480;28;45432;-71
2022/05/27 06:36:42;;;;;;;;;5.00;4.00;;;;;17.67;55.07;102127.34;4958970;28;45261;-71
2022/05/27 06:39:07;;;;;;;;;2.75;2.75;;;;;17.62;55.31;102122.09;4959002;28;46192;-71
2022/05/27 06:41:33;;;;;;;;;5.25;3.50;;;;;17.70;55.36;102135.31;4959032;28;45344;-71
2022/05/27 06:43:59;;;;;;;;;3.25;2.50;;;;;17.71;55.38;102139.78;4959165;28;45438;-71
2022/05/27 06:46:25;;;;;;;;;3.00;2.50;;;;;17.66;55.32;102122.84;4959052;28;45268;-71
2022/05/27 06:48:50;;;;;;;;;3.25;3.00;;;;;17.70;55.42;102129.91;4957742;28;46981;-71
2022/05/27 06:51:18;;;;;;;;;1.50;1.50;;;;;17.71;55.31;102131.69;4958918;28;45226;-71
2022/05/27 06:53:44;;;;;;;;;4.25;3.50;;;;;17.74;55.72;102137.84;4958804;28;45334;-71
2022/05/27 06:56:10;;;;;;;;;3.00;3.00;;;;;17.71;55.46;102132.56;4958845;28;45549;-71
2022/05/27 06:58:37;;;;;;;;;4.25;3.25;;;;;17.71;55.80;102143.34;4958740;28;47093;-71
2022/05/27 07:01:03;;;;;;;;;5.00;2.75;;;;;17.71;55.88;102131.69;4958822;28;45472;-71
2022/05/27 07:03:28;;;;;;;;;3.25;2.50;;;;;17.70;55.18;102136.19;4958845;28;45236;-73
2022/05/27 07:05:54;;;;;;;;;3.50;3.50;;;;;17.76;56.02;102140.47;4958796;28;45319;-71
2022/05/27 07:08:19;;;;;;;;;4.75;4.75;;;;;17.72;55.63;102133.41;4957228;28;47945;-71
2022/05/27 07:10:45;;;;;;;;;7.00;7.00;;;;;17.75;55.66;102136.88;4958842;28;45394;-71
2022/05/27 07:13:10;;;;;;;;;7.75;6.25;;;;;17.75;55.47;102136.00;4950309;28;45213;-71
2022/05/27 07:15:36;;;;;;;;;7.00;6.25;;;;;17.70;55.51;102128.09;4954224;28;45159;-71
2022/05/27 07:18:04;;;;;;;;;4.75;4.50;;;;;17.67;55.61;102130.03;4958473;28;45575;-72
2022/05/27 07:20:30;;;;;;;;;8.50;6.25;;;;;17.76;55.62;102138.66;4958804;28;45314;-70
2022/05/27 07:22:55;;;;;;;;;8.25;8.25;;;;;17.71;55.71;102137.97;4955236;28;45516;-67
2022/05/27 07:25:22;;;;;;;;;11.25;8.25;;;;;17.71;56.06;102143.34;4953921;28;45324;-70
2022/05/27 07:27:47;;;;;;;;;10.50;9.25;;;;;17.72;55.83;102136.13;4957105;28;45385;-71
2022/05/27 07:30:16;;;;;;;;;12.50;9.00;;;;;17.77;56.29;102137.72;4958518;28;45445;-71
2022/05/27 07:32:43;;;;;;;;;9.25;8.50;;;;;17.74;55.81;102139.63;4958543;28;45170;-71
2022/05/27 07:35:09;;;;;;;;;11.75;10.25;;;;;17.74;55.96;102129.75;4957120;28;45362;-71
2022/05/27 07:37:35;;;;;;;;;12.00;10.25;;;;;17.74;56.00;102139.63;4956923;28;47235;-71
2022/05/27 07:40:01;;;;;;;;;10.25;8.50;;;;;17.75;56.53;102136.00;4956896;28;45482;-71
2022/05/27 07:42:26;;;;;;;;;12.00;11.25;;;;;17.71;56.14;102127.16;4958391;28;45309;-72
2022/05/27 07:44:52;;;;;;;;;14.50;12.50;;;;;17.74;56.25;102126.13;4958005;28;45291;-72
2022/05/27 07:47:18;;;;;;;;;8.75;8.75;;;;;17.79;56.08;102132.22;4958184;28;45355;-72
2022/05/27 07:49:43;;;;;;;;;7.25;7.00;;;;;17.84;56.03;102142.84;4958097;28;45169;-72
2022/05/27 07:52:09;;;;;;;;;9.50;7.25;;;;;17.86;56.37;102139.16;4958166;28;45751;-71
2022/05/27 07:54:35;;;;;;;;;10.75;8.75;;;;;17.85;56.27;102128.41;4958030;28;45537;-71
2022/05/27 07:57:00;;;;;;;;;7.75;7.75;;;;;17.86;56.36;102130.16;4956399;28;46945;-71
2022/05/27 07:59:26;;;;;;;;;7.25;6.25;;;;;17.82;56.20;102123.13;4957896;28;45498;-71
2022/05/27 08:01:52;;;;;;;;;7.75;7.75;;;;;17.89;56.66;102127.38;4956620;28;45263;-71
2022/05/27 08:04:18;;;;;;;;;10.50;8.75;;;;;17.88;56.60;102128.31;4957955;28;45497;-71
2022/05/27 08:06:43;;;;;;;;;4.25;3.75;;;;;17.89;56.29;102135.47;4956700;28;47208;-71
2022/05/27 08:09:09;;;;;;;;;7.00;6.75;;;;;17.88;56.74;102131.03;4957701;28;45287;-71
2022/05/27 08:11:34;;;;;;;;;7.00;6.00;;;;;17.91;56.04;102139.00;4957998;28;45440;-71
2022/05/27 08:14:01;;;;;;;;;5.00;4.75;;;;;17.87;56.12;102138.22;4943537;28;45294;-71
2022/05/27 08:16:27;;;;;;;;;4.00;4.00;;;;;17.92;56.42;102140.75;4957859;28;46005;-71
2022/05/27 08:18:52;;;;;;;;;6.00;5.50;;;;;17.89;56.53;102138.16;4956552;28;45514;-71
2022/05/27 08:21:18;;;;;;;;;4.50;4.50;;;;;17.88;56.39;102131.03;4957931;28;45228;-72
2022/05/27 08:23:43;;;;;;;;;4.75;3.50;;;;;17.92;56.39;102136.22;4949601;28;45127;-71
2022/05/27 08:26:09;;;;;;;;;4.75;4.75;;;;;18.00;56.37;102135.03;4957558;28;49336;-71
2022/05/27 08:28:34;;;;;;;;;7.75;6.00;;;;;17.98;56.03;102129.69;4957715;28;45239;-71
2022/05/27 08:31:00;;;;;;;;;4.00;4.00;;;;;17.99;56.18;102127.88;4956375;28;45419;-71
2022/05/27 08:38:00;;;;;;;;;4.00;4.00;;;;;18.02;56.22;102119.63;4957439;28;45445;-71
2022/05/27 08:39:03;;;;;;;;;5.25;5.25;;;;;18.01;56.21;102124.19;4934171;28;45442;-72
2022/05/27 08:41:37;;;;;;;;;3.00;3.00;;;;;18.09;56.71;102142.75;4957474;28;45509;-73
2022/05/27 08:44:24;;;;;;;;;4.75;4.75;;;;;18.06;56.74;102123.97;4957468;28;45292;-71
2022/05/27 08:47:03;;;;;;;;;6.25;5.50;;;;;18.13;56.65;102133.59;4957183;28;45278;-71
2022/05/27 08:49:39;;;;;;;;;6.50;5.00;;;;;18.07;56.81;102123.03;4957281;28;45329;-71
2022/05/27 08:52:21;;;;;;;;;3.75;3.75;;;;;18.14;56.35;102132.63;4957255;28;45325;-71
2022/05/27 08:55:03;;;;;;;;;3.75;3.75;;;;;18.16;56.73;102133.47;4957307;28;45217;-71
2022/05/27 09:00:20;;;;;;;;;2.75;2.75;;;;;18.16;56.72;102128.06;4960318;28;45228;-71
2022/05/27 09:02:48;;;;;;;;;4.50;4.50;;;;;18.23;56.65;102139.50;4960323;28;45453;-71
2022/05/27 09:05:21;;;;;;;;;4.75;4.75;;;;;18.23;56.80;102134.94;4959031;28;45912;-71
2022/05/27 09:08:15;;;;;;;;;3.75;3.75;;;;;18.25;56.89;102143.88;4959959;28;45363;-73
2022/05/27 09:11:07;;;;;;;;;7.75;3.00;;;;;18.26;57.21;102140.22;4960313;28;45642;-74
2022/05/27 09:13:40;;;;;;;;;4.75;4.75;;;;;18.26;56.97;102145.63;4949063;28;45276;-72
2022/05/27 09:16:41;;;;;;;;;3.00;2.75;;;;;18.28;57.10;102146.44;4959666;28;45212;-71
2022/05/27 09:19:20;;;;;;;;;5.00;5.00;;;;;18.25;57.19;102138.47;4959433;28;45435;-72
2022/05/27 09:22:18;;;;;;;;;3.50;3.50;;;;;18.33;57.16;102147.13;4960156;28;45237;-71
2022/05/27 09:25:18;;;;;;;;;6.00;3.50;;;;;18.33;57.05;102149.84;4929014;28;45391;-70
2022/05/27 09:27:43;;;;;;;;;4.00;4.00;;;;;18.36;57.35;102142.53;4958726;28;46224;-70
2022/05/27 09:30:12;;;;;;;;;4.50;3.75;;;;;18.34;57.42;102137.19;4959871;28;46471;-70
2022/05/27 09:33:00;;;;;;;;;5.00;3.25;;;;;18.37;56.98;102139.75;4960250;28;45674;-70
2022/05/27 09:35:26;;;;;;;;;6.50;5.50;;;;;18.34;57.65;102134.47;4958561;28;45331;-70
2022/05/27 09:37:55;;;;;;;;;8.00;5.00;;;;;18.39;57.51;102140.56;4959712;28;45324;-71
2022/05/27 09:40:48;;;;;;;;;4.50;2.75;;;;;18.38;57.60;102127.16;4959542;28;45266;-70
2022/05/27 09:43:16;;;;;;;;;3.75;2.50;;;;;18.37;57.84;102137.06;4959785;28;45468;-71
2022/05/27 09:45:43;;;;;;;;;5.00;5.00;;;;;18.31;58.19;102126.53;4959995;28;45275;-71
2022/05/27 09:48:10;;;;;;;;;4.25;3.50;;;;;18.36;58.06;102132.63;4959584;28;45572;-71
2022/05/27 09:50:43;;;;;;;;;3.75;3.75;;;;;18.39;57.54;102140.56;4959767;28;46663;-71
2022/05/27 09:53:17;;;;;;;;;3.25;3.25;;;;;18.41;57.78;102136.00;4959200;28;45292;-70
2022/05/27 09:56:05;;;;;;;;;4.25;3.50;;;;;18.47;58.18;102138.41;4959677;28;45277;-72
2022/05/27 09:58:35;;;;;;;;;3.50;3.50;;;;;18.48;58.03;102134.78;4936817;28;45332;-70
2022/05/27 10:01:03;;;;;;;;;4.50;3.75;;;;;18.53;58.00;102137.28;4958124;28;47231;-71
2022/05/27 10:03:36;;;;;;;;;3.00;3.00;;;;;18.49;58.53;102130.22;4959482;28;45292;-70
2022/05/27 10:06:08;;;;;;;;;3.00;3.00;;;;;18.56;58.15;102138.97;4959540;28;45417;-70
2022/05/27 10:08:44;;;;;;;;;5.75;4.25;;;;;18.58;58.42;102137.09;4956829;28;45478;-70
2022/05/27 10:11:15;;;;;;;;;3.00;3.00;;;;;18.60;59.10;102135.19;4959142;28;45339;-70
2022/05/27 10:13:41;;;;;;;;;5.75;3.00;;;;;18.60;59.15;102138.75;4946989;28;45468;-70
2022/05/27 10:16:26;;;;;;;;;3.75;2.00;;;;;18.56;58.89;102125.44;4959252;28;45324;-70
2022/05/27 10:19:10;;;;;;;;;3.00;2.50;;;;;18.61;59.41;102126.09;4958085;28;46144;-70
2022/05/27 10:21:54;;;;;;;;;4.00;3.00;;;;;18.64;58.66;102123.28;4959395;28;45389;-70
2022/05/27 10:24:25;;;;;;;;;3.25;3.00;;;;;18.66;58.72;102116.88;4951979;28;45350;-70
2022/05/27 10:27:09;;;;;;;;;4.25;3.50;;;;;18.70;59.20;102109.50;4959501;28;45418;-70
2022/05/27 10:29:54;;;;;;;;;3.00;3.00;;;;;18.73;59.14;102105.75;4959348;28;45504;-70
2022/05/27 10:32:33;;;;;;;;;4.75;4.75;;;;;18.74;58.86;102102.09;4959163;28;45719;-70
2022/05/27 10:35:04;;;;;;;;;5.00;4.75;;;;;18.76;58.78;102105.63;4959184;28;45423;-70
2022/05/27 10:37:44;;;;;;;;;4.00;2.50;;;;;18.80;58.36;102102.72;4957833;28;45282;-71
2022/05/27 10:40:28;;;;;;;;;2.25;2.25;;;;;18.84;58.78;102108.88;4957827;28;45552;-70
2022/05/27 10:43:05;;;;;;;;;3.25;2.00;;;;;18.85;58.32;102102.53;4959059;28;45398;-70
2022/05/27 10:45:34;;;;;;;;;3.00;2.00;;;;;18.83;58.36;102101.75;4959116;28;45559;-70
2022/05/27 10:48:15;;;;;;;;;2.25;2.00;;;;;18.90;58.36;102100.50;4959150;28;45293;-71
2022/05/27 10:50:51;;;;;;;;;3.25;3.00;;;;;18.87;58.60;102093.38;4959286;28;45415;-70
2022/05/27 10:53:41;;;;;;;;;5.00;2.00;;;;;18.96;58.66;102104.75;4958696;28;46692;-70
2022/05/27 10:56:23;;;;;;;;;2.50;2.50;;;;;18.97;58.22;102109.22;4958841;28;45229;-70
2022/05/27 11:02:07;;;;;;;;;4.50;3.25;;;;;19.06;57.97;102112.38;4958791;28;45335;-70
2022/05/27 11:05:06;;;;;;;;;5.00;4.25;;;;;19.07;58.46;102105.13;4958694;28;45438;-70
2022/05/27 11:08:05;;;;;;;;;1.25;1.25;;;;;19.13;57.58;102107.56;4958550;28;45384;-70
2022/05/27 11:10:40;;;;;;;;;3.00;3.00;;;;;19.17;57.40;102106.44;4957597;28;45264;-70
2022/05/27 11:16:35;;;;;;;;;3.25;3.00;;;;;19.24;58.21;102110.66;4934889;28;45772;-71
2022/05/27 11:19:21;;;;;;;;;3.00;3.00;;;;;19.28;57.38;102110.47;4958514;28;45529;-71
2022/05/27 11:22:14;;;;;;;;;4.50;2.75;;;;;19.30;58.12;102103.19;4958448;28;45447;-70
2022/05/27 11:25:01;;;;;;;;;2.75;2.25;;;;;19.32;57.89;102109.41;4951289;28;45545;-70
2022/05/27 11:27:51;;;;;;;;;3.50;3.50;;;;;19.32;57.58;102098.56;4958489;28;46502;-70
2022/05/27 11:30:40;;;;;;;;;5.00;4.00;;;;;19.34;57.61;102099.38;4958608;28;45954;-70
2022/05/27 11:33:23;;;;;;;;;2.75;2.75;;;;;19.37;57.14;102099.22;4958584;28;45339;-71
2022/05/27 11:36:11;;;;;;;;;3.25;1.75;;;;;19.41;57.44;102092.69;4958692;28;45337;-70
2022/05/27 11:38:42;;;;;;;;;3.25;3.25;;;;;19.44;57.07;102093.44;4944562;28;45335;-71
2022/05/27 11:41:45;;;;;;;;;3.25;3.25;;;;;19.47;57.34;102097.81;4958433;28;45477;-70
2022/05/27 11:44:31;;;;;;;;;2.00;2.00;;;;;19.45;57.06;102086.19;4924665;28;45373;-70
2022/05/27 11:47:24;;;;;;;;;2.25;2.25;;;;;19.47;57.28;102083.41;4956978;28;46221;-70
2022/05/27 11:50:09;;;;;;;;;4.00;3.00;;;;;19.50;57.40;102086.84;4958236;28;45400;-71
2022/05/27 11:52:34;;;;;;;;;3.00;3.00;;;;;19.52;56.93;102090.34;4958304;28;45219;-70
2022/05/27 11:55:18;;;;;;;;;3.75;3.75;;;;;19.51;57.31;102077.78;4958375;28;45304;-71
2022/05/27 11:58:05;;;;;;;;;3.00;3.00;;;;;19.54;57.24;102088.44;4956920;28;45585;-70
2022/05/27 12:00:38;;;;;;;;;5.00;4.00;;;;;19.55;57.15;102090.22;4958206;28;45343;-70
2022/05/27 12:03:42;;;;;;;;;4.00;3.00;;;;;19.59;57.19;102090.94;4957959;28;45718;-70
2022/05/27 12:06:14;;;;;;;;;3.00;3.00;;;;;19.56;57.66;102082.94;4958081;28;45436;-70
2022/05/27 12:08:48;;;;;;;;;1.00;1.00;;;;;19.59;57.10;102085.50;4958020;28;45434;-70
2022/05/27 12:11:19;;;;;;;;;3.00;3.00;;;;;19.61;57.24;102084.50;4957609;28;45392;-70
2022/05/27 12:13:54;;;;;;;;;3.75;3.75;;;;;19.63;57.01;102081.72;4945086;28;45283;-70
2022/05/27 12:16:27;;;;;;;;;4.25;3.00;;;;;19.67;57.05;102071.59;4958114;28;45379;-70